Time,TemperatureF,DewpointF,PressureIn,WindDirection,WindDirectionDegrees,WindSpeedMPH,WindSpeedGustMPH,Humidity,HourlyPrecipIn,Conditions,Clouds,dailyrainin,SoftwareType,DateUTC
2013-07-22 00:02:00,79.0,75.0,29.84,East,100,8.0,-999.0,88,-99.99,,,-99.99,,2013-07-22 05:02:00,
2013-07-22 00:11:00,79.0,75.0,29.84,East,100,8.0,-999.0,88,-99.99,,,-99.99,,2013-07-22 05:11:00,
2013-07-22 00:22:00,79.0,75.0,29.84,East,100,7.0,-999.0,88,-99.99,,,-99.99,,2013-07-22 05:22:00,
2013-07-22 00:32:00,79.0,75.0,29.84,ESE,110,7.0,-999.0,88,-99.99,,,-99.99,,2013-07-22 05:32:00,
2013-07-22 00:42:00,77.0,75.0,29.84,ESE,110,7.0,-999.0,94,-99.99,,,-99.99,,2013-07-22 05:42:00,
2013-07-22 00:52:00,77.0,75.0,29.84,ESE,110,6.0,-999.0,94,-99.99,,,-99.99,,2013-07-22 05:52:00,
2013-07-22 01:01:00,77.0,73.0,29.84,ESE,110,6.0,-999.0,88,-99.99,,,-99.99,,2013-07-22 06:01:00,
2013-07-22 01:11:00,77.0,73.0,29.84,ESE,110,6.0,-999.0,88,-99.99,,,-99.99,,2013-07-22 06:11:00,
2013-07-22 01:22:00,77.0,75.0,29.84,ESE,110,5.0,-999.0,94,-99.99,,,-99.99,,2013-07-22 06:22:00,
2013-07-22 01:32:00,75.0,73.0,29.83,ESE,120,5.0,-999.0,94,-99.99,,,-99.99,,2013-07-22 06:32:00,
2013-07-22 01:43:00,75.0,73.0,29.83,ESE,120,5.0,-999.0,94,-99.99,,,-99.99,,2013-07-22 06:43:00,
2013-07-22 01:52:00,75.0,73.0,29.83,ESE,120,3.0,-999.0,94,-99.99,,,-99.99,,2013-07-22 06:52:00,
2013-07-22 02:01:00,75.0,73.0,29.83,ESE,120,3.0,-999.0,94,-99.99,,,-99.99,,2013-07-22 07:01:00,
2013-07-22 02:11:00,75.0,73.0,29.83,SE,130,3.0,-999.0,94,-99.99,,,-99.99,,2013-07-22 07:11:00,
2013-07-22 02:22:00,75.0,73.0,29.82,SE,140,3.0,-999.0,94,-99.99,,,-99.99,,2013-07-22 07:22:00,
2013-07-22 02:33:00,75.0,73.0,29.82,SSE,150,5.0,-999.0,94,-99.99,,,-99.99,,2013-07-22 07:33:00,
2013-07-22 02:43:00,75.0,73.0,29.82,SSE,150,5.0,-999.0,94,-99.99,,,-99.99,,2013-07-22 07:43:00,
2013-07-22 02:52:00,75.0,73.0,29.82,SSE,150,3.0,-999.0,94,-99.99,,,-99.99,,2013-07-22 07:52:00,
2013-07-22 03:01:00,75.0,73.0,29.82,SSE,150,3.0,-999.0,94,-99.99,,,-99.99,,2013-07-22 08:01:00,
2013-07-22 03:11:00,75.0,73.0,29.82,SSE,160,3.0,-999.0,94,-99.99,,,-99.99,,2013-07-22 08:11:00,
2013-07-22 03:22:00,75.0,73.0,29.82,South,170,5.0,-999.0,94,-99.99,,,-99.99,,2013-07-22 08:22:00,
2013-07-22 03:32:00,75.0,73.0,29.81,South,180,6.0,-999.0,94,-99.99,,,-99.99,,2013-07-22 08:32:00,
2013-07-22 03:43:00,75.0,73.0,29.81,South,170,6.0,-999.0,94,-99.99,,,-99.99,,2013-07-22 08:43:00,
2013-07-22 03:52:00,75.0,73.0,29.81,South,170,5.0,-999.0,94,-99.99,,,-99.99,,2013-07-22 08:52:00,
2013-07-22 04:02:00,75.0,72.0,29.81,South,170,5.0,-999.0,88,-99.99,,,-99.99,,2013-07-22 09:02:00,
2013-07-22 04:11:00,73.0,72.0,29.81,SSE,160,5.0,-999.0,94,-99.99,,,-99.99,,2013-07-22 09:11:00,
2013-07-22 04:22:00,73.0,72.0,29.81,South,170,5.0,-999.0,94,-99.99,,,-99.99,,2013-07-22 09:22:00,
2013-07-22 04:33:00,73.0,72.0,29.81,South,180,6.0,-999.0,94,-99.99,,,-99.99,,2013-07-22 09:33:00,
2013-07-22 04:42:00,75.0,70.0,29.81,South,180,6.0,-999.0,83,-99.99,,,-99.99,,2013-07-22 09:42:00,
2013-07-22 04:52:00,75.0,70.0,29.81,South,190,5.0,-999.0,83,-99.99,,,-99.99,,2013-07-22 09:52:00,
2013-07-22 05:01:00,75.0,70.0,29.81,South,190,3.0,-999.0,83,-99.99,,,-99.99,,2013-07-22 10:01:00,
2013-07-22 05:11:00,75.0,70.0,29.81,South,180,5.0,-999.0,83,-99.99,,,-99.99,,2013-07-22 10:11:00,
2013-07-22 05:22:00,73.0,70.0,29.81,South,180,5.0,-999.0,88,-99.99,,,-99.99,,2013-07-22 10:22:00,
2013-07-22 05:32:00,73.0,70.0,29.81,South,190,5.0,-999.0,88,-99.99,,,-99.99,,2013-07-22 10:32:00,
2013-07-22 05:43:00,73.0,70.0,29.81,South,190,5.0,-999.0,88,-99.99,,,-99.99,,2013-07-22 10:43:00,
2013-07-22 05:52:00,73.0,70.0,29.81,South,180,5.0,-999.0,88,-99.99,,,-99.99,,2013-07-22 10:52:00,
2013-07-22 06:01:00,73.0,70.0,29.81,SSW,200,3.0,-999.0,88,-99.99,,,-99.99,,2013-07-22 11:01:00,
2013-07-22 06:11:00,73.0,68.0,29.81,South,190,3.0,-999.0,83,-99.99,,,-99.99,,2013-07-22 11:11:00,
2013-07-22 06:22:00,73.0,68.0,29.81,North,0,0.0,-999.0,83,-99.99,,,-99.99,,2013-07-22 11:22:00,
2013-07-22 06:32:00,73.0,68.0,29.81,North,0,0.0,-999.0,83,-99.99,,,-99.99,,2013-07-22 11:32:00,
2013-07-22 06:43:00,73.0,68.0,29.81,North,0,0.0,-999.0,83,-99.99,,,-99.99,,2013-07-22 11:43:00,
2013-07-22 06:52:00,73.0,68.0,29.82,North,0,0.0,-999.0,83,-99.99,,,-99.99,,2013-07-22 11:52:00,
2013-07-22 07:02:00,73.0,68.0,29.82,North,0,0.0,-999.0,83,-99.99,,,-99.99,,2013-07-22 12:02:00,
2013-07-22 07:11:00,72.0,68.0,29.83,North,0,0.0,-999.0,88,-99.99,,,-99.99,,2013-07-22 12:11:00,
2013-07-22 07:22:00,72.0,68.0,29.83,North,0,0.0,-999.0,88,-99.99,,,-99.99,,2013-07-22 12:22:00,
2013-07-22 07:32:00,72.0,70.0,29.84,North,0,0.0,-999.0,94,-99.99,,,-99.99,,2013-07-22 12:32:00,
2013-07-22 07:43:00,72.0,70.0,29.83,SSE,150,3.0,-999.0,94,-99.99,,,-99.99,,2013-07-22 12:43:00,
2013-07-22 07:53:00,73.0,70.0,29.83,SSE,160,3.0,-999.0,88,-99.99,,,-99.99,,2013-07-22 12:53:00,
2013-07-22 08:01:00,75.0,70.0,29.83,North,0,0.0,-999.0,83,-99.99,,,-99.99,,2013-07-22 13:01:00,
2013-07-22 08:22:00,79.0,70.0,29.84,North,0,0.0,-999.0,73,-99.99,,,-99.99,,2013-07-22 13:22:00,
2013-07-22 08:32:00,77.0,70.0,29.85,WNW,290,7.0,-999.0,78,-99.99,,,-99.99,,2013-07-22 13:32:00,
2013-07-22 08:43:00,75.0,70.0,29.84,WSW,250,8.0,-999.0,83,-99.99,,,-99.99,,2013-07-22 13:43:00,
2013-07-22 08:53:00,75.0,70.0,29.82,SSW,210,10.0,-999.0,83,-99.99,,,-99.99,,2013-07-22 13:53:00,
2013-07-22 09:01:00,75.0,70.0,29.82,SW,220,10.0,-999.0,83,-99.99,,,-99.99,,2013-07-22 14:01:00,
2013-07-22 09:11:00,79.0,70.0,29.82,SSW,200,6.0,-999.0,73,-99.99,,,-99.99,,2013-07-22 14:11:00,
2013-07-22 09:22:00,81.0,70.0,29.84,SW,220,6.0,-999.0,69,-99.99,,,-99.99,,2013-07-22 14:22:00,
2013-07-22 09:32:00,81.0,70.0,29.91,NNW,340,17.0,25.0,69,-99.99,,,-99.99,,2013-07-22 14:32:00,
2013-07-22 09:43:00,79.0,70.0,29.91,NNW,330,14.0,18.0,73,-99.99,,,-99.99,,2013-07-22 14:43:00,
2013-07-22 10:01:00,79.0,68.0,29.91,NNW,330,8.0,-999.0,69,-99.99,,,-99.99,,2013-07-22 15:01:00,
2013-07-22 10:11:00,79.0,70.0,29.91,North,350,10.0,-999.0,73,-99.99,,,-99.99,,2013-07-22 15:11:00,
2013-07-22 10:22:00,77.0,70.0,29.90,North,10,6.0,-999.0,78,-99.99,,,-99.99,,2013-07-22 15:22:00,
2013-07-22 10:33:00,75.0,70.0,29.90,NE,40,8.0,-999.0,83,-99.99,,,-99.99,,2013-07-22 15:33:00,
2013-07-22 10:42:00,75.0,70.0,29.91,North,0,0.0,-999.0,83,-99.99,,,-99.99,,2013-07-22 15:42:00,
2013-07-22 10:52:00,75.0,70.0,29.90,ESE,120,5.0,-999.0,83,-99.99,,,-99.99,,2013-07-22 15:52:00,
2013-07-22 11:01:00,75.0,70.0,29.91,SSE,160,7.0,-999.0,83,-99.99,,,-99.99,,2013-07-22 16:01:00,
2013-07-22 11:11:00,75.0,68.0,29.86,ESE,120,15.0,-999.0,78,-99.99,,,-99.99,,2013-07-22 16:11:00,
2013-07-22 11:32:00,75.0,70.0,29.83,SE,130,14.0,22.0,83,-99.99,,,-99.99,,2013-07-22 16:32:00,
2013-07-22 11:43:00,77.0,70.0,29.86,SSE,160,12.0,-999.0,78,-99.99,,,-99.99,,2013-07-22 16:43:00,
2013-07-22 11:52:00,79.0,70.0,29.89,West,260,7.0,21.0,73,-99.99,,,-99.99,,2013-07-22 16:52:00,
2013-07-22 12:01:00,79.0,70.0,29.89,North,0,0.0,-999.0,73,-99.99,,,-99.99,,2013-07-22 17:01:00,
2013-07-22 12:11:00,81.0,70.0,29.88,South,170,9.0,-999.0,69,-99.99,,,-99.99,,2013-07-22 17:11:00,
2013-07-22 12:32:00,81.0,70.0,29.89,SSW,200,6.0,-999.0,69,-99.99,,,-99.99,,2013-07-22 17:32:00,
2013-07-22 12:43:00,81.0,70.0,29.89,South,170,8.0,-999.0,69,-99.99,,,-99.99,,2013-07-22 17:43:00,
2013-07-22 12:52:00,81.0,70.0,29.88,SSE,160,14.0,-999.0,69,-99.99,,,-99.99,,2013-07-22 17:52:00,
2013-07-22 13:04:00,82.0,70.0,29.88,South,190,10.0,-999.0,65,-99.99,,,-99.99,,2013-07-22 18:04:00,
2013-07-22 13:13:00,82.0,70.0,29.87,SSE,160,10.0,-999.0,65,-99.99,,,-99.99,,2013-07-22 18:13:00,
2013-07-22 13:33:00,84.0,70.0,29.85,South,180,14.0,-999.0,62,-99.99,,,-99.99,,2013-07-22 18:33:00,
2013-07-22 13:47:00,88.0,70.0,29.84,South,180,15.0,-999.0,55,-99.99,,,-99.99,,2013-07-22 18:47:00,
2013-07-22 15:52:00,91.0,72.0,29.85,East,90,6.0,22.0,52,-99.99,,,-99.99,,2013-07-22 20:52:00,
2013-07-22 16:01:00,91.0,72.0,29.86,ENE,70,14.0,22.0,52,-99.99,,,-99.99,,2013-07-22 21:01:00,
2013-07-22 16:11:00,90.0,72.0,29.87,NE,50,18.0,22.0,55,-99.99,,,-99.99,,2013-07-22 21:11:00,
2013-07-22 16:32:00,82.0,70.0,29.88,North,10,27.0,38.0,65,-99.99,,,-99.99,,2013-07-22 21:32:00,
2013-07-22 18:22:00,79.0,72.0,29.85,East,100,12.0,-999.0,78,-99.99,,,-99.99,,2013-07-22 23:22:00,
2013-07-22 18:32:00,81.0,72.0,29.85,ESE,110,13.0,17.0,74,-99.99,,,-99.99,,2013-07-22 23:32:00,
2013-07-22 18:42:00,81.0,68.0,29.86,SE,130,17.0,25.0,65,-99.99,,,-99.99,,2013-07-22 23:42:00,
2013-07-22 18:52:00,79.0,66.0,29.85,ESE,110,14.0,25.0,65,-99.99,,,-99.99,,2013-07-22 23:52:00,
2013-07-22 19:01:00,81.0,66.0,29.86,East,100,10.0,25.0,61,-99.99,,,-99.99,,2013-07-23 00:01:00,
2013-07-22 19:11:00,79.0,66.0,29.84,ESE,120,12.0,-999.0,65,-99.99,,,-99.99,,2013-07-23 00:11:00,
2013-07-22 19:22:00,79.0,66.0,29.83,ESE,120,10.0,-999.0,65,-99.99,,,-99.99,,2013-07-23 00:22:00,
2013-07-22 19:32:00,79.0,66.0,29.84,SE,140,8.0,-999.0,65,-99.99,,,-99.99,,2013-07-23 00:32:00,
2013-07-22 19:43:00,79.0,66.0,29.85,ENE,70,10.0,-999.0,65,-99.99,,,-99.99,,2013-07-23 00:43:00,
2013-07-22 19:52:00,79.0,66.0,29.86,ESE,110,7.0,-999.0,65,-99.99,,,-99.99,,2013-07-23 00:52:00,
2013-07-22 20:01:00,79.0,68.0,29.86,ESE,120,8.0,-999.0,69,-99.99,,,-99.99,,2013-07-23 01:01:00,
2013-07-22 20:11:00,77.0,68.0,29.89,North,10,16.0,-999.0,73,-99.99,,,-99.99,,2013-07-23 01:11:00,
2013-07-22 20:22:00,73.0,66.0,29.88,East,80,9.0,13.0,78,-99.99,,,-99.99,,2013-07-23 01:22:00,
2013-07-22 20:32:00,73.0,70.0,29.89,East,90,16.0,35.0,88,-99.99,,,-99.99,,2013-07-23 01:32:00,
2013-07-22 20:43:00,75.0,70.0,29.87,East,100,23.0,31.0,83,-99.99,,,-99.99,,2013-07-23 01:43:00,
2013-07-22 20:53:00,75.0,68.0,29.86,ESE,110,10.0,27.0,78,-99.99,,,-99.99,,2013-07-23 01:53:00,
2013-07-22 21:01:00,77.0,70.0,29.86,ESE,120,13.0,18.0,78,-99.99,,,-99.99,,2013-07-23 02:01:00,
2013-07-22 21:11:00,79.0,68.0,29.86,SE,130,12.0,18.0,69,-99.99,,,-99.99,,2013-07-23 02:11:00,
2013-07-22 21:33:00,79.0,70.0,29.86,SSE,150,20.0,23.0,73,-99.99,,,-99.99,,2013-07-23 02:33:00,
2013-07-22 21:43:00,77.0,70.0,29.86,SSE,150,14.0,22.0,78,-99.99,,,-99.99,,2013-07-23 02:43:00,
2013-07-22 21:52:00,79.0,68.0,29.86,SSE,150,16.0,24.0,69,-99.99,,,-99.99,,2013-07-23 02:52:00,
2013-07-22 22:01:00,79.0,68.0,29.87,SSE,160,13.0,-999.0,69,-99.99,,,-99.99,,2013-07-23 03:01:00,
2013-07-22 22:11:00,79.0,70.0,29.86,SSE,160,17.0,23.0,73,-99.99,,,-99.99,,2013-07-23 03:11:00,
2013-07-22 22:22:00,81.0,70.0,29.85,SSE,160,20.0,28.0,69,-99.99,,,-99.99,,2013-07-23 03:22:00,
2013-07-22 22:33:00,82.0,66.0,29.84,South,180,21.0,29.0,58,-99.99,,,-99.99,,2013-07-23 03:33:00,
2013-07-22 22:52:00,82.0,68.0,29.82,South,180,18.0,30.0,61,-99.99,,,-99.99,,2013-07-23 03:52:00,
2013-07-22 23:01:00,82.0,68.0,29.83,South,180,17.0,27.0,61,-99.99,,,-99.99,,2013-07-23 04:01:00,
2013-07-22 23:11:00,81.0,68.0,29.84,South,170,10.0,23.0,65,-99.99,,,-99.99,,2013-07-23 04:11:00,
2013-07-22 23:21:00,81.0,70.0,29.84,South,180,12.0,-999.0,69,-99.99,,,-99.99,,2013-07-23 04:21:00,
2013-07-22 23:32:00,82.0,66.0,29.84,South,170,13.0,18.0,58,-99.99,,,-99.99,,2013-07-23 04:32:00,
2013-07-22 23:42:00,82.0,66.0,29.85,South,180,12.0,-999.0,58,-99.99,,,-99.99,,2013-07-23 04:42:00,
2013-07-22 23:53:00,81.0,66.0,29.85,South,180,10.0,-999.0,61,-99.99,,,-99.99,,2013-07-23 04:53:00,